Latest Weather Observations for Blackall

IDQ60801

Issued at 4:32 pm EST Wednesday 10 February 2016 (issued every 30 minutes, with the page automatically refreshed every 10 minutes)

About weather observations | Map of weather stations | Latest weather observations for QLD | Other Formats
Station Details ID: 036034 Name: BLACKALL AIRPORT Lat: -24.43 Lon: 145.43 Height: 281.3 m
Data from the previous 72 hours. | See also: Recent months at Blackall
Date/Time
EST
Temp
°C
App
Temp
°C
Dew
Point
Rel
Hum
%
Delta-T
°C
Wind Press
QNH
hPa
Press
MSL
hPa
Rain
since 9 am
mm
Dir
 
Spd
km/h
Gust
km/h
Spd
kts
Gust
kts
10/04:30pm 32.1 30.3 13.3 31 11.4 ESE 15 26 8 14 1009.3 1007.3 0.0
10/04:00pm 31.7 29.7 13.9 34 10.9 SE 17 30 9 16 1009.5 1007.6 0.0
10/03:30pm 31.9 30.2 13.6 32 11.2 SE 15 30 8 16 1010.0 1008.1 0.0
10/03:00pm 31.7 30.8 14.8 36 10.5 SE 13 22 7 12 1010.2 1008.3 0.0
10/02:30pm 31.0 30.2 15.0 38 9.9 ESE 13 22 7 12 1010.6 1008.6 0.0
10/02:00pm 30.8 30.0 15.2 38 9.7 ESE 13 22 7 12 1011.0 1009.0 0.0
10/01:30pm 30.3 28.9 15.6 41 9.2 ESE 17 26 9 14 1011.5 1009.5 0.0
10/01:00pm 30.3 30.7 18.1 48 7.9 E 13 24 7 13 1011.9 1009.9 0.0
10/12:30pm 28.4 27.6 17.0 50 7.2 E 17 26 9 14 1012.3 1010.3 0.0
10/12:00pm 28.7 29.9 16.9 48 7.5 ESE 6 13 3 7 1012.7 1010.7 0.0
10/11:30am 28.3 28.3 17.2 51 7.1 E 13 22 7 12 1013.1 1011.2 0.0
10/11:00am 28.5 29.1 18.6 55 6.4 ENE 13 24 7 13 1013.4 1011.5 0.0
10/10:30am 27.8 28.1 18.8 58 5.8 ENE 15 22 8 12 1013.6 1011.7 0.0
10/10:00am 27.8 27.6 18.5 57 6.0 NE 17 28 9 15 1013.8 1011.9 0.0
10/09:30am 27.1 27.0 18.7 60 5.4 NE 17 20 9 11 1013.9 1012.0 0.0
10/09:00am 26.4 25.6 18.5 62 5.1 NNE 20 26 11 14 1013.9 1012.0 -
10/08:30am 25.6 24.9 18.3 64 4.7 NNE 19 28 10 15 1013.6 1011.7 -
10/08:00am 24.8 24.4 18.0 66 4.3 NE 17 26 9 14 1013.3 1011.4 -
10/07:30am 23.6 23.8 17.6 69 3.8 ENE 13 17 7 9 1013.0 1011.1 -
10/07:00am 22.5 22.7 17.6 74 3.1 E 13 19 7 10 1012.7 1010.7 -
10/06:30am 21.1 22.2 17.9 82 2.0 E 9 13 5 7 1012.3 1010.3 -
10/06:00am 20.2 21.2 17.8 86 1.5 ESE 9 11 5 6 1011.9 1009.9 -
10/05:30am 20.5 21.5 17.7 84 1.7 ESE 9 11 5 6 1011.6 1009.6 -
10/05:00am 20.9 21.9 17.7 82 2.0 SE 9 11 5 6 1011.3 1009.3 -
10/04:30am 21.2 22.3 18.0 82 2.0 ESE 9 11 5 6 1011.0 1009.0 -
10/04:00am 21.3 22.4 18.1 82 2.0 SE 9 11 5 6 1010.8 1008.8 -
10/03:30am 21.6 22.6 17.8 79 2.4 SE 9 11 5 6 1010.7 1008.7 -
10/03:00am 21.9 23.0 18.1 79 2.4 SE 9 11 5 6 1010.9 1008.9 0.0
10/02:30am 22.3 24.1 18.7 80 2.3 SE 7 9 4 5 1011.1 1009.1 -
10/02:00am 22.5 24.3 18.7 79 2.4 SE 7 9 4 5 1011.1 1009.1 -
10/01:30am 23.0 24.4 18.7 77 2.7 ESE 9 11 5 6 1011.2 1009.2 -
10/01:00am 23.5 24.9 18.6 74 3.1 ESE 9 11 5 6 1011.5 1009.5 -
10/12:30am 23.9 25.6 18.5 72 3.4 ESE 7 9 4 5 1011.8 1009.8 -
10/12:00am 24.2 25.8 18.2 69 3.8 E 7 11 4 6 1011.9 1009.9 -
 
Date/Time
EST
Temp
°C
App
Temp
°C
Dew
Point
Rel
Hum
%
Delta-T
°C
Wind Press
QNH
hPa
Press
MSL
hPa
Rain
since 9 am
mm
Dir
 
Spd
km/h
Gust
km/h
Spd
kts
Gust
kts
09/11:30pm 25.1 25.7 17.8 64 4.6 E 11 13 6 7 1011.8 1009.8 -
09/11:00pm 26.0 25.2 17.1 58 5.6 E 17 24 9 13 1012.2 1010.2 -
09/10:30pm 25.7 25.8 17.4 60 5.2 ESE 13 19 7 10 1012.0 1010.0 -
09/10:00pm 25.8 26.3 17.4 59 5.3 ESE 11 13 6 7 1012.0 1010.0 -
09/09:30pm 26.3 26.8 17.4 58 5.6 ESE 11 15 6 8 1012.0 1010.0 -
09/09:00pm 26.4 27.8 17.7 58 5.5 ESE 7 11 4 6 1011.8 1009.8 0.0
09/08:30pm 27.4 28.6 17.3 54 6.4 ESE 7 9 4 5 1011.5 1009.5 -
09/08:00pm 28.0 28.5 16.6 50 7.2 ESE 9 11 5 6 1011.1 1009.1 -
09/07:30pm 29.0 28.7 15.5 44 8.4 ESE 11 15 6 8 1011.1 1009.1 -
09/07:00pm 29.9 28.4 15.2 41 9.1 ESE 17 20 9 11 1010.9 1008.9 -
09/06:30pm 31.0 29.0 15.0 38 9.9 ESE 19 24 10 13 1010.7 1008.7 -
09/06:00pm 31.6 29.5 14.7 36 10.5 ESE 19 30 10 16 1010.6 1008.6 -
09/05:30pm 32.0 29.6 13.7 33 11.2 ESE 19 24 10 13 1010.3 1008.4 -
09/05:00pm 32.5 31.8 16.3 37 10.3 E 15 20 8 11 1010.2 1008.3 -
09/04:30pm 31.7 29.6 14.8 36 10.5 ESE 19 24 10 13 1010.5 1008.5 -
09/04:00pm 32.1 30.1 15.6 37 10.4 ESE 20 30 11 16 1010.7 1008.7 -
09/03:30pm 32.1 30.6 16.4 39 10.0 ESE 19 30 10 16 1010.9 1008.9 -
09/03:00pm 32.5 30.8 17.2 40 9.9 ENE 22 32 12 17 1011.1 1009.1 -
09/02:30pm 32.0 30.8 17.5 42 9.4 E 20 32 11 17 1011.5 1009.5 -
09/02:00pm 31.3 30.9 17.2 42 9.1 E 15 24 8 13 1011.9 1009.9 -
09/01:30pm 31.4 30.6 18.4 46 8.5 E 20 35 11 19 1012.4 1010.4 -
09/01:00pm 31.2 31.6 18.9 48 8.1 E 15 28 8 15 1012.8 1010.9 -
09/12:30pm 30.8 30.9 19.2 50 7.6 E 17 26 9 14 1013.2 1011.3 -
09/12:00pm 29.8 30.1 19.5 54 6.8 ENE 17 26 9 14 1013.7 1011.8 0.0
09/11:30am 30.6 30.8 20.2 53 6.9 E 19 24 10 13 1014.0 1012.1 0.0
09/11:00am 29.1 29.2 19.1 54 6.5 ENE 17 24 9 13 1014.3 1012.3 0.0
09/10:30am 29.4 30.1 20.5 58 5.9 ENE 17 22 9 12 1014.5 1012.5 0.0
09/10:00am 28.5 28.5 19.7 59 5.8 ENE 19 26 10 14 1014.6 1012.6 0.0
09/09:30am 27.8 28.1 19.6 61 5.4 NE 17 24 9 13 1014.6 1012.6 0.0
09/09:00am 27.2 27.3 20.3 66 4.6 ENE 20 26 11 14 1014.6 1012.6 1.4
09/08:30am 26.8 26.9 19.9 66 4.5 ENE 19 22 10 12 1014.5 1012.5 1.4
09/08:00am 25.8 26.1 19.7 69 4.0 ENE 17 20 9 11 1014.3 1012.3 1.4
09/07:30am 24.6 25.9 20.1 76 2.9 E 13 15 7 8 1014.0 1012.1 1.4
09/07:00am 23.2 25.7 20.3 84 1.9 ESE 7 11 4 6 1013.7 1011.8 1.4
09/06:30am 22.0 24.7 20.6 92 0.9 SE 7 9 4 5 1013.2 1011.3 1.4
09/06:00am 21.6 24.3 20.6 94 0.7 SE 7 9 4 5 1012.6 1010.6 1.4
09/05:30am 21.8 24.1 20.6 93 0.8 SE 9 11 5 6 1012.3 1010.3 1.4
09/05:00am 21.9 24.5 20.5 92 0.9 SE 7 9 4 5 1012.0 1010.0 1.4
09/04:30am 22.1 24.8 20.7 92 0.9 SE 7 9 4 5 1011.7 1009.7 1.4
09/04:00am 22.1 24.9 20.4 90 1.1 ESE 6 9 3 5 1011.4 1009.4 1.4
09/03:30am 22.3 25.1 20.8 91 1.0 ENE 7 9 4 5 1011.3 1009.3 1.4
09/03:00am 22.5 26.4 21.1 92 0.9 ESE 2 6 1 3 1011.5 1009.5 1.4
09/02:30am 22.5 25.7 21.3 93 0.8 SE 6 7 3 4 1011.6 1009.6 1.4
09/02:00am 22.8 27.0 20.9 89 1.3 CALM 0 0 0 0 1011.8 1009.8 1.4
09/01:30am 22.9 26.9 20.6 87 1.5 CALM 0 0 0 0 1012.2 1010.2 1.4
09/01:00am 23.3 27.2 20.4 84 1.9 CALM 0 0 0 0 1012.5 1010.5 1.4
09/12:30am 23.8 26.4 20.5 82 2.2 E 7 9 4 5 1012.7 1010.7 1.4
09/12:00am 24.3 26.2 20.6 80 2.4 ENE 11 13 6 7 1012.9 1011.0 1.4
 
Date/Time
EST
Temp
°C
App
Temp
°C
Dew
Point
Rel
Hum
%
Delta-T
°C
Wind Press
QNH
hPa
Press
MSL
hPa
Rain
since 9 am
mm
Dir
 
Spd
km/h
Gust
km/h
Spd
kts
Gust
kts
08/11:30pm 24.4 26.8 20.9 81 2.3 E 9 11 5 6 1013.3 1011.4 1.4
08/11:00pm 24.7 27.2 21.0 80 2.5 E 9 11 5 6 1013.4 1011.5 1.4
08/10:30pm 25.1 27.8 21.4 80 2.5 E 9 11 5 6 1013.4 1011.5 1.4
08/10:00pm 25.3 28.3 21.2 78 2.7 ESE 7 9 4 5 1013.2 1011.3 1.4
08/09:30pm 26.0 29.0 21.2 75 3.2 E 7 11 4 6 1013.0 1011.1 1.4
08/09:00pm 26.4 28.7 20.7 71 3.8 E 9 13 5 7 1012.8 1010.9 1.4
08/08:30pm 26.8 28.9 20.2 67 4.4 E 9 13 5 7 1012.6 1010.6 1.4
08/08:00pm 27.1 28.8 20.2 66 4.6 E 11 15 6 8 1012.5 1010.5 1.4
08/07:30pm 27.3 29.4 20.1 64 4.8 E 9 13 5 7 1012.3 1010.3 1.4
08/07:00pm 27.9 29.0 19.7 61 5.4 ESE 13 19 7 10 1012.0 1010.0 1.4
08/06:30pm 28.1 27.7 19.3 58 5.8 E 20 26 11 14 1011.7 1009.7 1.4
08/06:00pm 28.2 28.0 19.4 59 5.8 ESE 19 28 10 15 1011.4 1009.4 1.4
08/05:30pm 28.6 28.4 19.8 59 5.8 ESE 20 26 11 14 1011.2 1009.2 1.4
08/05:00pm 29.0 29.3 19.6 57 6.2 ESE 17 24 9 13 1011.1 1009.1 1.4
08/04:30pm 29.2 28.4 19.2 54 6.6 ESE 22 30 12 16 1011.1 1009.1 1.4
08/04:00pm 29.2 28.4 20.1 58 6.0 ESE 24 32 13 17 1011.2 1009.2 1.4
08/03:30pm 29.2 29.9 20.4 59 5.9 E 17 24 9 13 1011.5 1009.5 1.4
08/03:00pm 29.0 29.3 20.7 61 5.6 E 20 26 11 14 1011.8 1009.8 1.4
08/02:30pm 28.6 29.6 21.1 64 5.0 E 17 24 9 13 1012.2 1010.2 1.4
08/02:00pm 26.8 28.1 21.6 73 3.5 ESE 17 24 9 13 1012.8 1010.9 1.4
08/01:30pm 25.0 26.1 22.3 85 1.8 ESE 20 33 11 18 1013.3 1011.4 1.4
08/01:00pm 28.5 30.0 20.5 62 5.3 SE 13 24 7 13 1013.4 1011.5 0.6
08/12:30pm 27.8 30.0 21.8 70 4.1 ESE 13 20 7 11 1013.7 1011.8 0.6
08/12:00pm 25.5 27.1 20.7 75 3.2 SE 13 24 7 13 1014.4 1012.4 0.2
08/11:30am 26.7 28.9 21.2 72 3.7 E 11 17 6 9 1014.6 1012.6 0.0
08/11:00am 26.6 27.8 20.7 70 3.9 E 15 19 8 10 1014.8 1012.8 0.0
08/10:30am 26.3 27.2 20.8 71 3.7 E 17 24 9 13 1014.8 1012.8 0.0
08/10:00am 26.4 27.5 21.2 73 3.5 E 17 22 9 12 1014.8 1012.8 0.0
08/09:30am 25.5 26.6 20.5 74 3.3 ESE 15 28 8 15 1014.7 1012.7 0.0
08/09:00am 25.2 26.5 20.9 77 2.9 ESE 15 20 8 11 1014.6 1012.6 0.2
08/08:30am 24.6 25.1 20.1 76 2.9 ESE 17 22 9 12 1014.4 1012.4 0.2
08/08:00am 24.5 25.7 20.6 79 2.6 E 15 20 8 11 1013.8 1011.9 0.2
08/07:30am 23.9 25.2 20.2 80 2.4 ESE 13 19 7 10 1013.7 1011.8 0.2
08/07:00am 23.5 25.3 20.4 83 2.0 SE 11 15 6 8 1013.5 1011.6 0.2
08/06:30am 22.0 23.9 20.5 91 1.0 ESE 11 15 6 8 1013.2 1011.3 0.2
08/06:00am 21.8 23.3 20.6 93 0.8 E 13 17 7 9 1012.8 1010.9 0.2
08/05:30am 21.6 23.9 20.6 94 0.7 ESE 9 13 5 7 1012.7 1010.7 0.2
08/05:00am 21.7 23.9 20.3 92 0.9 ESE 9 13 5 7 1012.4 1010.4 0.2
08/04:30am 22.0 23.4 20.3 90 1.1 E 13 17 7 9 1012.2 1010.2 0.2
08/04:00am 22.0 23.9 20.5 91 1.0 ESE 11 17 6 9 1012.0 1010.0 0.2
08/03:30am 22.3 23.4 20.4 89 1.2 SE 15 22 8 12 1011.9 1009.9 0.2
08/03:00am 22.4 24.0 20.7 90 1.1 ESE 13 17 7 9 1011.9 1009.9 0.2
08/02:30am 22.3 23.8 20.6 90 1.1 ESE 13 17 7 9 1012.0 1010.0 0.2
08/02:00am 22.4 23.5 20.5 89 1.2 ESE 15 19 8 10 1012.1 1010.1 0.2
08/01:30am 22.5 23.7 20.6 89 1.2 ESE 15 20 8 11 1012.4 1010.4 0.2
08/01:00am 22.5 23.7 20.6 89 1.2 ESE 15 20 8 11 1012.6 1010.6 0.2
08/12:30am 22.7 23.1 20.6 88 1.4 SE 19 28 10 15 1012.8 1010.9 0.2
08/12:00am 22.9 24.1 20.6 87 1.5 SE 15 24 8 13 1013.3 1011.4 0.2
 
Date/Time
EST
Temp
°C
App
Temp
°C
Dew
Point
Rel
Hum
%
Delta-T
°C
Wind Press
QNH
hPa
Press
MSL
hPa
Rain
since 9 am
mm
Dir
 
Spd
km/h
Gust
km/h
Spd
kts
Gust
kts
07/11:30pm 23.2 24.0 20.7 86 1.6 ESE 17 22 9 12 1013.4 1011.5 0.2
07/11:00pm 23.2 23.5 20.5 85 1.8 SE 19 26 10 14 1013.4 1011.5 0.2
07/10:30pm 23.4 23.6 20.5 84 1.9 SE 20 30 11 16 1013.3 1011.4 0.2
07/10:00pm 23.6 23.5 20.7 84 1.9 SE 22 32 12 17 1013.1 1011.2 0.2
07/09:30pm 23.7 22.8 20.6 83 2.0 SE 26 39 14 21 1012.8 1010.9 0.2
07/09:00pm 23.7 23.9 20.6 83 2.0 SE 20 26 11 14 1012.6 1010.6 0.2
07/08:30pm 23.8 22.9 20.7 83 2.0 SE 26 35 14 19 1012.3 1010.3 0.2
07/08:00pm 24.0 23.1 20.7 82 2.2 SE 26 39 14 21 1012.0 1010.0 0.2
07/07:30pm 24.4 24.0 20.9 81 2.3 SE 24 43 13 23 1011.6 1009.6 0.2
07/07:00pm 25.0 25.1 21.1 79 2.6 SE 22 37 12 20 1011.0 1009.0 0.2
07/06:30pm 25.8 25.8 21.7 78 2.8 SSE 24 37 13 20 1010.1 1008.2 0.2
07/06:00pm 26.5 25.8 21.0 72 3.7 SE 26 39 14 21 1009.7 1007.8 0.2
07/05:30pm 27.5 26.9 21.3 69 4.2 SE 26 35 14 19 1009.2 1007.2 0.2
07/05:00pm 28.4 28.7 22.2 69 4.2 SSE 24 35 13 19 1008.8 1006.8 0.2

Other Formats:

Comma delimited format used in spreadsheet applications
http://www.bom.gov.au/fwo/IDQ60801/IDQ60801.95351.axf

JavaScript Object Notation format (JSON) in row-major order
http://www.bom.gov.au/fwo/IDQ60801/IDQ60801.95351.json